createdAt,value
2022-08-10T00:00:10.295Z,15.68
2022-08-10T00:02:59.323Z,15.86
2022-08-10T00:05:52.850Z,15.62
2022-08-10T00:08:39.934Z,15.62
2022-08-10T00:11:27.706Z,15.77
2022-08-10T00:14:14.242Z,15.65
2022-08-10T00:17:00.606Z,15.56
2022-08-10T00:20:03.524Z,15.61
2022-08-10T00:22:57.972Z,15.54
2022-08-10T00:25:44.701Z,15.49
2022-08-10T00:28:31.582Z,15.39
2022-08-10T00:31:17.723Z,15.33
2022-08-10T00:34:04.319Z,15.29
2022-08-10T00:36:50.624Z,15.13
2022-08-10T00:39:39.446Z,15.29
2022-08-10T00:42:26.342Z,15.08
2022-08-10T00:45:13.558Z,15.23
2022-08-10T00:47:59.838Z,14.98
2022-08-10T00:50:46.957Z,15.06
2022-08-10T00:53:33.479Z,14.84
2022-08-10T00:57:07.914Z,14.93
2022-08-10T00:59:26.661Z,14.80
2022-08-10T01:02:13.143Z,14.80
2022-08-10T01:05:08.908Z,14.77
2022-08-10T01:08:31.760Z,14.72
2022-08-10T01:12:28.627Z,14.76
2022-08-10T01:14:55.846Z,14.15
2022-08-10T01:21:59.234Z,14.69
2022-08-10T01:24:54.279Z,14.55
2022-08-10T01:27:58.535Z,14.37
2022-08-10T01:30:47.073Z,14.37
2022-08-10T01:33:58.851Z,14.32
2022-08-10T01:36:53.954Z,14.19
2022-08-10T01:39:45.397Z,14.24
2022-08-10T01:42:35.223Z,14.27
2022-08-10T01:45:25.507Z,14.27
2022-08-10T01:48:33.570Z,14.10
2022-08-10T01:51:38.552Z,14.26
2022-08-10T01:54:26.953Z,14.04
2022-08-10T01:57:16.702Z,14.06
2022-08-10T02:00:04.827Z,13.88
2022-08-10T02:02:55.125Z,14.03
2022-08-10T02:05:44.565Z,14.04
2022-08-10T02:08:34.189Z,14.02
2022-08-10T02:11:22.894Z,13.87
2022-08-10T02:14:13.406Z,13.76
2022-08-10T02:17:02.616Z,13.94
2022-08-10T02:19:51.235Z,13.85
2022-08-10T02:22:39.439Z,13.85
2022-08-10T02:25:42.041Z,13.61
2022-08-10T02:28:33.154Z,13.75
2022-08-10T02:31:23.305Z,13.53
2022-08-10T02:34:12.578Z,13.42
2022-08-10T02:37:03.123Z,13.57
2022-08-10T02:39:57.806Z,13.38
2022-08-10T02:45:21.402Z,13.18
2022-08-10T02:46:08.443Z,13.51
2022-08-10T02:49:03.881Z,13.51
2022-08-10T02:52:06.290Z,13.40
2022-08-10T02:55:06.168Z,13.17
2022-08-10T02:58:18.080Z,13.10
2022-08-10T03:01:09.289Z,13.14
2022-08-10T03:04:07.826Z,13.29
2022-08-10T03:06:58.138Z,12.87
2022-08-10T03:09:45.884Z,13.02
2022-08-10T03:12:47.181Z,13.15
2022-08-10T03:15:36.213Z,13.00
2022-08-10T03:18:24.671Z,13.04
2022-08-10T03:21:13.626Z,12.96
2022-08-10T03:24:02.681Z,12.72
2022-08-10T03:27:10.588Z,12.92
2022-08-10T03:30:28.669Z,13.01
2022-08-10T03:33:06.397Z,12.97
2022-08-10T03:36:42.690Z,12.78
2022-08-10T03:38:59.431Z,12.77
2022-08-10T03:41:54.263Z,12.90
2022-08-10T03:44:46.230Z,12.89
2022-08-10T03:47:42.550Z,12.68
2022-08-10T03:50:51.477Z,12.51
2022-08-10T03:54:04.871Z,12.72
2022-08-10T03:56:44.485Z,12.66
2022-08-10T03:59:31.449Z,12.49
2022-08-10T04:02:44.993Z,12.45
2022-08-10T04:05:26.201Z,12.68
2022-08-10T04:08:25.178Z,12.41
2022-08-10T04:11:11.994Z,12.63
2022-08-10T04:13:58.452Z,12.52
2022-08-10T04:16:44.671Z,12.58
2022-08-10T04:19:40.682Z,12.46
2022-08-10T04:22:29.017Z,12.59
2022-08-10T04:25:16.529Z,12.40
2022-08-10T04:28:03.637Z,12.50
2022-08-10T04:30:52.473Z,12.60
2022-08-10T04:33:43.179Z,12.57
2022-08-10T04:36:30.945Z,12.56
2022-08-10T04:39:17.948Z,12.58
2022-08-10T04:42:05.661Z,12.50
2022-08-10T04:44:51.940Z,12.56
2022-08-10T04:48:00.886Z,12.50
2022-08-10T04:50:45.022Z,12.87
2022-08-10T04:54:05.857Z,12.71
2022-08-10T04:56:41.854Z,12.97
2022-08-10T04:59:28.454Z,13.26
2022-08-10T05:02:29.379Z,13.38
2022-08-10T05:05:18.070Z,13.45
2022-08-10T05:08:04.864Z,14.53
2022-08-10T05:10:51.063Z,15.90
2022-08-10T05:13:37.186Z,17.51
2022-08-10T05:16:32.397Z,18.58
2022-08-10T05:19:23.456Z,19.62
2022-08-10T05:22:25.409Z,20.60
2022-08-10T05:25:14.422Z,21.29
2022-08-10T05:28:04.391Z,21.46
2022-08-10T05:30:52.844Z,21.61
2022-08-10T05:33:39.486Z,21.32
2022-08-10T05:36:26.726Z,21.41
2022-08-10T05:39:15.082Z,20.96
2022-08-10T05:42:02.280Z,20.36
2022-08-10T05:44:48.582Z,19.85
2022-08-10T05:48:54.461Z,19.34
2022-08-10T05:50:41.263Z,19.05
2022-08-10T05:54:01.429Z,18.44
2022-08-10T05:56:53.932Z,18.14
2022-08-10T06:00:12.634Z,18.11
2022-08-10T06:03:14.635Z,17.76
2022-08-10T06:06:02.928Z,17.67
2022-08-10T06:08:51.130Z,17.46
2022-08-10T06:12:28.685Z,17.62
2022-08-10T06:15:05.225Z,17.65
2022-08-10T06:18:01.638Z,17.68
2022-08-10T06:20:50.146Z,17.76
2022-08-10T06:23:37.774Z,17.82
2022-08-10T06:26:24.113Z,17.93
2022-08-10T06:29:13.466Z,18.38
2022-08-10T06:32:01.743Z,18.52
2022-08-10T06:34:54.765Z,18.45
2022-08-10T06:37:43.270Z,18.67
2022-08-10T06:40:41.776Z,18.74
2022-08-10T06:43:29.622Z,18.91
2022-08-10T06:46:19.597Z,19.15
2022-08-10T06:49:09.490Z,19.42
2022-08-10T06:51:58.002Z,19.56
2022-08-10T06:54:45.118Z,19.62
2022-08-10T06:57:35.349Z,19.95
2022-08-10T07:00:31.773Z,20.19
2022-08-10T07:03:22.745Z,20.43
2022-08-10T07:06:13.736Z,20.59
2022-08-10T07:09:04.455Z,20.75
2022-08-10T07:11:52.186Z,21.23
2022-08-10T07:14:43.588Z,21.41
2022-08-10T07:17:37.243Z,21.76
2022-08-10T07:20:27.219Z,22.04
2022-08-10T07:23:58.541Z,21.98
2022-08-10T07:26:24.019Z,22.35
2022-08-10T07:29:26.486Z,22.04
2022-08-10T07:32:20.958Z,22.31
2022-08-10T07:35:10.891Z,22.45
2022-08-10T07:37:59.912Z,22.56
2022-08-10T07:40:53.072Z,22.30
2022-08-10T07:43:40.889Z,22.71
2022-08-10T07:46:29.604Z,22.68
2022-08-10T07:49:23.503Z,22.74
2022-08-10T07:52:11.042Z,23.03
2022-08-10T07:54:58.631Z,22.98
2022-08-10T07:57:49.378Z,23.11
2022-08-10T08:00:37.159Z,23.19
2022-08-10T08:03:25.400Z,23.40
2022-08-10T08:06:13.313Z,23.50
2022-08-10T08:09:03.497Z,23.39
2022-08-10T08:11:51.422Z,23.47
2022-08-10T08:14:40.041Z,23.66
2022-08-10T08:17:35.727Z,23.63
2022-08-10T08:20:25.489Z,23.66
2022-08-10T08:24:06.697Z,23.91
2022-08-10T08:26:23.037Z,24.03
2022-08-10T08:29:12.803Z,24.14
2022-08-10T08:32:02.554Z,24.11
2022-08-10T08:34:54.782Z,24.51
2022-08-10T08:38:32.976Z,24.58
2022-08-10T08:41:03.814Z,24.30
2022-08-10T08:44:03.428Z,24.62
2022-08-10T08:48:02.286Z,24.79
2022-08-10T08:50:30.844Z,24.97
2022-08-10T08:53:23.253Z,25.03
2022-08-10T08:56:24.888Z,25.04
2022-08-10T08:59:25.271Z,25.10
2022-08-10T09:02:24.714Z,25.14
2022-08-10T09:05:59.409Z,25.04
2022-08-10T09:08:56.028Z,25.29
2022-08-10T09:12:10.274Z,25.37
2022-08-10T09:15:11.598Z,25.47
2022-08-10T09:18:27.642Z,25.45
2022-08-10T09:21:43.130Z,25.51
2022-08-10T09:24:41.717Z,25.66
2022-08-10T09:27:49.245Z,25.49
2022-08-10T09:31:22.521Z,25.87
2022-08-10T09:36:24.403Z,25.94
2022-08-10T09:38:01.148Z,25.87
2022-08-10T09:41:14.140Z,25.93
2022-08-10T09:44:18.819Z,26.02
2022-08-10T09:47:15.017Z,26.08
2022-08-10T09:50:10.919Z,26.17
2022-08-10T09:53:03.334Z,26.10
2022-08-10T09:56:17.847Z,26.18
2022-08-10T10:00:00.203Z,26.11
2022-08-10T10:03:01.907Z,26.45
2022-08-10T10:06:12.287Z,26.52
2022-08-10T10:09:27.129Z,26.43
2022-08-10T10:12:25.889Z,26.64
2022-08-10T10:15:27.874Z,26.75
2022-08-10T10:18:20.049Z,26.59
2022-08-10T10:21:55.851Z,26.57
2022-08-10T10:24:40.175Z,26.72
2022-08-10T10:27:36.600Z,26.83
2022-08-10T10:30:31.028Z,26.66
2022-08-10T10:33:27.016Z,26.80
2022-08-10T10:36:16.923Z,26.98
2022-08-10T10:39:04.881Z,27.07
2022-08-10T10:42:04.545Z,26.63
2022-08-10T10:45:10.916Z,26.91
2022-08-10T10:48:28.903Z,26.71
2022-08-10T10:51:28.992Z,27.06
2022-08-10T10:54:36.125Z,27.23
2022-08-10T10:58:00.118Z,27.29
2022-08-10T11:00:56.755Z,27.23
2022-08-10T11:03:58.655Z,27.40
2022-08-10T11:07:03.110Z,27.34
2022-08-10T11:10:03.268Z,27.17
2022-08-10T11:14:25.881Z,27.43
2022-08-10T11:16:26.020Z,27.51
2022-08-10T11:19:21.017Z,27.53
2022-08-10T11:22:36.638Z,27.56
2022-08-10T11:25:38.570Z,27.29
2022-08-10T11:28:37.117Z,27.48
2022-08-10T11:31:45.675Z,27.38
2022-08-10T11:35:10.595Z,27.49
2022-08-10T11:38:30.048Z,27.50
2022-08-10T11:42:12.384Z,27.44
2022-08-10T11:44:43.546Z,27.51
2022-08-10T11:47:48.220Z,27.40
2022-08-10T11:50:52.119Z,27.57
2022-08-10T11:54:04.662Z,27.74
2022-08-10T11:56:58.557Z,27.80
2022-08-10T11:59:58.346Z,27.80
2022-08-10T12:02:55.297Z,28.06
2022-08-10T12:05:53.806Z,28.20
2022-08-10T12:10:06.238Z,28.44
2022-08-10T12:11:50.774Z,28.59
2022-08-10T12:14:52.703Z,28.72
2022-08-10T12:17:53.853Z,28.63
2022-08-10T12:20:43.594Z,28.57
2022-08-10T12:23:42.595Z,28.77
2022-08-10T12:26:39.586Z,28.68
2022-08-10T12:29:45.975Z,28.84
2022-08-10T12:32:47.482Z,28.56
2022-08-10T12:36:14.966Z,28.74
2022-08-10T12:39:26.782Z,28.84
2022-08-10T12:42:37.083Z,29.08
2022-08-10T12:45:50.094Z,28.95
2022-08-10T12:48:48.307Z,29.42
2022-08-10T12:51:37.787Z,29.50
2022-08-10T12:54:32.005Z,29.19
2022-08-10T12:57:24.638Z,29.21
2022-08-10T13:00:17.348Z,28.93
2022-08-10T13:03:06.359Z,29.08
2022-08-10T13:06:02.141Z,29.10
2022-08-10T13:09:10.985Z,28.81
2022-08-10T13:12:37.940Z,28.99
2022-08-10T13:15:49.839Z,28.94
2022-08-10T13:18:38.805Z,29.06
2022-08-10T13:21:31.410Z,29.15
2022-08-10T13:24:28.765Z,29.39
2022-08-10T13:27:26.048Z,29.37
2022-08-10T13:30:14.356Z,29.89
2022-08-10T13:33:01.783Z,29.54
2022-08-10T13:35:49.527Z,29.10
2022-08-10T13:38:48.722Z,29.17
2022-08-10T13:41:42.346Z,29.03
2022-08-10T13:44:38.227Z,29.10
2022-08-10T13:47:31.749Z,29.33
2022-08-10T13:50:37.453Z,29.25
2022-08-10T13:53:30.954Z,29.28
2022-08-10T13:56:18.822Z,29.55
2022-08-10T13:59:09.816Z,29.74
2022-08-10T14:02:00.669Z,29.92
2022-08-10T14:04:47.908Z,29.99
2022-08-10T14:07:39.123Z,29.71
2022-08-10T14:11:04.097Z,29.76
2022-08-10T14:13:56.813Z,29.92
2022-08-10T14:16:44.843Z,30.05
2022-08-10T14:19:36.655Z,29.92
2022-08-10T14:22:33.669Z,29.64
2022-08-10T14:25:21.351Z,29.43
2022-08-10T14:28:07.846Z,29.57
2022-08-10T14:31:06.498Z,29.51
2022-08-10T14:33:57.280Z,29.78
2022-08-10T14:37:06.635Z,29.88
2022-08-10T14:40:00.317Z,29.92
2022-08-10T14:43:02.181Z,30.17
2022-08-10T14:45:56.782Z,30.16
2022-08-10T14:48:50.059Z,30.26
2022-08-10T14:51:44.550Z,30.03
2022-08-10T14:54:33.615Z,30.02
2022-08-10T14:57:21.258Z,29.72
2022-08-10T15:00:29.398Z,29.44
2022-08-10T15:03:58.874Z,29.14
2022-08-10T15:06:30.841Z,28.87
2022-08-10T15:09:20.219Z,28.85
2022-08-10T15:12:14.968Z,28.89
2022-08-10T15:15:09.468Z,29.17
2022-08-10T15:17:59.194Z,28.86
2022-08-10T15:20:45.868Z,28.86
2022-08-10T15:24:05.312Z,28.76
2022-08-10T15:26:57.669Z,28.60
2022-08-10T15:29:57.697Z,28.59
2022-08-10T15:33:09.574Z,28.70
2022-08-10T15:36:17.340Z,28.68
2022-08-10T15:40:24.404Z,28.64
2022-08-10T15:42:37.628Z,28.44
2022-08-10T15:45:24.965Z,28.58
2022-08-10T15:48:14.500Z,28.57
2022-08-10T15:51:06.462Z,28.77
2022-08-10T15:53:55.862Z,28.59
2022-08-10T15:57:00.285Z,28.57
2022-08-10T15:59:55.103Z,28.40
2022-08-10T16:02:54.360Z,28.48
2022-08-10T16:06:01.972Z,28.59
2022-08-10T16:08:57.136Z,28.73
2022-08-10T16:12:29.201Z,28.64
2022-08-10T16:15:19.618Z,28.48
2022-08-10T16:18:09.933Z,28.49
2022-08-10T16:20:59.510Z,28.35
2022-08-10T16:24:15.004Z,28.23
2022-08-10T16:27:07.313Z,28.14
2022-08-10T16:30:00.565Z,28.18
2022-08-10T16:32:49.775Z,28.22
2022-08-10T16:35:39.391Z,28.11
2022-08-10T16:38:26.967Z,28.00
2022-08-10T16:41:54.945Z,28.02
2022-08-10T16:44:29.245Z,28.03
2022-08-10T16:47:16.439Z,28.05
2022-08-10T16:50:06.782Z,28.22
2022-08-10T16:52:55.492Z,27.98
2022-08-10T16:55:54.392Z,28.01
2022-08-10T16:58:54.490Z,28.06
2022-08-10T17:01:42.778Z,28.27
2022-08-10T17:04:40.767Z,28.19
2022-08-10T17:07:30.542Z,28.03
2022-08-10T17:10:20.149Z,28.03
2022-08-10T17:13:08.312Z,28.05
2022-08-10T17:16:02.298Z,27.75
2022-08-10T17:18:50.180Z,27.77
2022-08-10T17:21:51.061Z,27.81
2022-08-10T17:24:46.214Z,27.81
2022-08-10T17:28:05.748Z,27.65
2022-08-10T17:30:58.068Z,27.46
2022-08-10T17:33:47.712Z,27.53
2022-08-10T17:36:36.645Z,27.37
2022-08-10T17:39:31.491Z,27.28
2022-08-10T17:42:21.864Z,27.36
2022-08-10T17:45:46.310Z,27.14
2022-08-10T17:48:32.324Z,27.13
2022-08-10T17:51:19.009Z,27.25
2022-08-10T17:54:13.947Z,27.44
2022-08-10T17:57:14.662Z,27.15
2022-08-10T18:00:02.587Z,27.20
2022-08-10T18:02:52.256Z,26.88
2022-08-10T18:05:39.019Z,26.85
2022-08-10T18:08:29.641Z,26.89
2022-08-10T18:11:19.294Z,26.82
2022-08-10T18:14:07.326Z,26.74
2022-08-10T18:16:56.501Z,26.63
2022-08-10T18:19:48.094Z,26.60
2022-08-10T18:22:38.998Z,26.55
2022-08-10T18:25:34.939Z,26.40
2022-08-10T18:28:22.546Z,26.48
2022-08-10T18:31:16.226Z,26.22
2022-08-10T18:34:05.541Z,26.15
2022-08-10T18:37:02.262Z,26.01
2022-08-10T18:39:54.018Z,25.96
2022-08-10T18:42:43.541Z,26.01
2022-08-10T18:45:33.084Z,25.80
2022-08-10T18:48:22.666Z,25.61
2022-08-10T18:51:12.181Z,25.28
2022-08-10T18:54:39.831Z,25.34
2022-08-10T18:57:55.981Z,25.27
2022-08-10T19:01:07.655Z,25.20
2022-08-10T19:04:13.897Z,25.02
2022-08-10T19:07:30.346Z,24.66
2022-08-10T19:10:33.268Z,24.75
2022-08-10T19:13:50.693Z,24.50
2022-08-10T19:16:40.333Z,24.52
2022-08-10T19:19:50.698Z,23.98
2022-08-10T19:22:53.876Z,23.82
2022-08-10T19:26:39.303Z,23.74
2022-08-10T19:30:12.189Z,23.39
2022-08-10T19:32:52.232Z,23.21
2022-08-10T19:36:04.125Z,22.98
2022-08-10T19:39:08.611Z,22.89
2022-08-10T19:42:21.166Z,22.70
2022-08-10T19:46:01.815Z,22.41
2022-08-10T19:49:01.087Z,22.12
2022-08-10T19:52:10.959Z,21.98
2022-08-10T19:55:04.681Z,21.70
2022-08-10T19:57:56.629Z,21.74
2022-08-10T20:00:45.984Z,21.67
2022-08-10T20:03:32.104Z,21.46
2022-08-10T20:06:28.473Z,21.10
2022-08-10T20:09:21.877Z,21.18
2022-08-10T20:12:33.987Z,21.08
2022-08-10T20:15:42.312Z,20.96
2022-08-10T20:19:08.147Z,20.73
2022-08-10T20:22:00.142Z,20.73
2022-08-10T20:24:56.083Z,20.46
2022-08-10T20:28:14.620Z,20.31
2022-08-10T20:31:16.983Z,20.34
2022-08-10T20:34:15.545Z,20.10
2022-08-10T20:37:46.868Z,20.15
2022-08-10T20:40:47.118Z,20.02
2022-08-10T20:43:50.831Z,19.66
2022-08-10T20:46:50.369Z,19.70
2022-08-10T20:49:58.634Z,19.61
2022-08-10T20:52:49.530Z,19.48
2022-08-10T20:56:09.887Z,19.09
2022-08-10T20:59:09.293Z,19.31
2022-08-10T21:02:24.254Z,18.99
2022-08-10T21:05:36.487Z,19.08
2022-08-10T21:08:30.147Z,19.01
2022-08-10T21:11:57.735Z,18.67
2022-08-10T21:15:06.169Z,18.80
2022-08-10T21:18:20.422Z,18.72
2022-08-10T21:21:41.545Z,18.55
2022-08-10T21:24:41.506Z,18.30
2022-08-10T21:28:00.934Z,18.30
2022-08-10T21:31:14.107Z,18.49
2022-08-10T21:37:57.038Z,18.17
2022-08-10T21:41:57.025Z,18.04
2022-08-10T21:45:17.110Z,18.05
2022-08-10T21:48:57.160Z,17.88
2022-08-10T21:52:09.706Z,17.96
2022-08-10T21:55:57.235Z,17.70
2022-08-10T21:59:26.591Z,17.65
2022-08-10T22:02:34.456Z,17.45
2022-08-10T22:05:44.684Z,17.36
2022-08-10T22:08:59.342Z,17.29
2022-08-10T22:12:10.878Z,17.22
2022-08-10T22:16:05.640Z,17.21
2022-08-10T22:19:14.639Z,17.01
2022-08-10T22:22:28.262Z,17.05
2022-08-10T22:26:00.337Z,16.88
2022-08-10T22:29:13.095Z,16.94
2022-08-10T22:31:24.823Z,18.42
2022-08-10T22:32:27.478Z,16.95
2022-08-10T22:36:11.291Z,16.87
2022-08-10T22:40:11.657Z,16.71
2022-08-10T22:43:11.036Z,16.60
2022-08-10T22:46:22.014Z,16.57
2022-08-10T22:49:09.080Z,16.42
2022-08-10T22:52:02.057Z,16.49
2022-08-10T22:55:14.038Z,16.35
2022-08-10T22:58:19.361Z,16.28
2022-08-10T23:01:36.383Z,16.15
2022-08-10T23:04:25.530Z,16.32
2022-08-10T23:07:18.037Z,16.24
2022-08-10T23:10:09.121Z,16.00
2022-08-10T23:12:55.604Z,16.12
2022-08-10T23:16:37.352Z,15.89
2022-08-10T23:19:28.430Z,15.96
2022-08-10T23:22:18.458Z,15.94
2022-08-10T23:25:09.533Z,15.66
2022-08-10T23:28:12.284Z,15.58
2022-08-10T23:31:00.478Z,15.53
2022-08-10T23:33:52.118Z,15.58
2022-08-10T23:36:40.151Z,15.40
2022-08-10T23:39:31.375Z,15.64
2022-08-10T23:42:20.666Z,15.61
2022-08-10T23:45:14.942Z,15.45
2022-08-10T23:48:02.113Z,15.32
2022-08-10T23:51:02.702Z,15.23
2022-08-10T23:53:50.119Z,15.21
2022-08-10T23:56:42.735Z,15.29
2022-08-10T23:59:31.739Z,15.16
